13°C
Woerden, The Nederlands
Taal:  Nederlands
Updated22/06/2021 02:40 
 

Nearby METAR Reports

EHAM - Amsterdam/Schiph, Netherlands
Distance from station: N 27km
Updated: 22/06/2021 02:25
Gedeeltelijk bewolkt
Gedeeltelijk bewolkt
 Wind van N
Wind: N 7 km/h
Temperatuur: 13°C
Dauwpunt: 10°C
Vochtigheid: 82%
Barometer: 1015 hPa
Clouds: Gedeeltelijk bewolkt
Visibility: 10 km
Cloud details: Few Clouds 640 m
Gedeeltelijk bewolkt 1097 m
2021/06/22 00:25 EHAM 220025Z 01004KT 9999 FEW021 SCT036 13/10 Q1015 NOSIG
EHRD - Rotterdam Airpor, Netherlands
Distance from station: WZW 30km
Updated: 22/06/2021 02:25
Zwaar bewolkt
Zwaar bewolkt
 Wind van NNO
Wind: NNO 6 km/h
Temperatuur: 14°C
Dauwpunt: 11°C
Vochtigheid: 82%
Barometer: 1015 hPa
Clouds: Zwaar bewolkt
Visibility: 10 km
Cloud details: Zwaar bewolkt 549 m
2021/06/22 00:25 EHRD 220025Z AUTO 03003KT 9999 OVC018 14/11 Q1015 NOSIG
 
EHGR - Gilze-Rijen Rnla, Netherlands
Distance from station: Z 57km
Updated: 22/06/2021 02:25
Zwaar bewolkt
Zwaar bewolkt
 Wind van NNO
Wind: NNO 13 km/h
Temperatuur: 12°C
Dauwpunt: 10°C
Vochtigheid: 88%
Barometer: 1015 hPa
Clouds: Zwaar bewolkt
Visibility: 10 km
Cloud details: Zwaar bewolkt 5182 m
2021/06/22 00:25 EHGR 220025Z AUTO 03007KT 330V080 9999 OVC170 12/10 Q1015 BLU
EHDL - Deelen Rnlafb, Netherlands
Distance from station: O 71km
Updated: 22/06/2021 02:25
Zwaar bewolkt
Zwaar bewolkt
 Wind van N
Wind: N 4 km/h
Temperatuur: 10°C
Dauwpunt: 10°C
Vochtigheid: 100%
Barometer: 1015 hPa
Clouds: Zwaar bewolkt
Visibility: 10 km
Cloud details: Zwaar bewolkt 6096 m
2021/06/22 00:25 EHDL 220025Z AUTO 35002KT 9999 OVC200 10/10 Q1015 BLU
 
EHVK - Volkel Rnlafb, Netherlands
Distance from station: ZO 77km
Updated: 22/06/2021 02:33
Zwaar bewolkt
Zwaar bewolkt
 Wind van NO
Wind: NO 11 km/h
Temperatuur: 13°C
Dauwpunt: 10°C
Vochtigheid: 82%
Barometer: 1015 hPa
Clouds: Zwaar bewolkt
Visibility: 10 km
Cloud details: Gedeeltelijk bewolkt 457 m
Zwaar bewolkt 823 m
2021/06/22 00:33 EHVK 220033Z AUTO 04006KT 010V070 9999 SCT015 OVC027 13/10 Q1015 WHT
EHWO - Woensdrecht Rnla, Netherlands
Distance from station: ZZW 78km
Updated: 22/06/2021 02:25
Zwaar bewolkt
Zwaar bewolkt
 Wind van NO
Wind: NO 17 km/h
Temperatuur: 13°C
Dauwpunt: 10°C
Vochtigheid: 82%
Barometer: 1014 hPa
Clouds: Zwaar bewolkt
Visibility: 10 km
Cloud details: Few Clouds 2073 m
Zwaar bewolkt 4267 m
2021/06/22 00:25 EHWO 220025Z AUTO 04009KT 360V080 9999 FEW068 OVC140 13/10 Q1014 BLU
 
EHEH - Eindhoven Rnlafb, Netherlands
Distance from station: ZZO 81km
Updated: 22/06/2021 02:25
Zwaar bewolkt
Zwaar bewolkt
 Wind van NNO
Wind: NNO 13 km/h
Temperatuur: 14°C
Dauwpunt: 11°C
Vochtigheid: 82%
Barometer: 1014 hPa
Clouds: Zwaar bewolkt
Visibility: 10 km
Cloud details: Zwaar bewolkt 610 m
2021/06/22 00:25 EHEH 220025Z AUTO 03007KT 350V060 9999 OVC020 14/11 Q1014 WHT NOSIG
EHSC - Goeree Le Sea, Netherlands
Distance from station: W 81km
Updated: 22/06/2021 02:25

 Wind van NO
Wind: NO 33 km/h
Temperatuur: 15°C
Dauwpunt: 10°C
Vochtigheid: 72%
Barometer: 1014 hPa
Visibility: 10 km
2021/06/22 00:25 EHSC 220025Z AUTO 05018KT 9999 ///////// 15/10 Q1014 W15/H13